createdAt,value
2018-06-03T00:00:24.797Z,17.28
2018-06-03T00:01:24.788Z,17.20
2018-06-03T00:02:24.801Z,17.28
2018-06-03T00:03:24.751Z,17.27
2018-06-03T00:04:24.747Z,17.31
2018-06-03T00:05:24.713Z,17.19
2018-06-03T00:06:24.696Z,17.13
2018-06-03T00:07:24.680Z,17.19
2018-06-03T00:08:24.669Z,17.16
2018-06-03T00:09:24.655Z,17.22
2018-06-03T00:10:24.638Z,17.10
2018-06-03T00:11:24.620Z,17.16
2018-06-03T00:12:24.608Z,17.13
2018-06-03T00:13:24.605Z,17.22
2018-06-03T00:14:24.571Z,17.12
2018-06-03T00:15:24.556Z,17.12
2018-06-03T00:16:24.535Z,17.09
2018-06-03T00:17:24.523Z,17.09
2018-06-03T00:18:24.510Z,17.16
2018-06-03T00:19:24.501Z,16.97
2018-06-03T00:20:24.472Z,17.10
2018-06-03T00:21:24.497Z,16.97
2018-06-03T00:22:24.446Z,16.99
2018-06-03T00:23:24.435Z,16.98
2018-06-03T00:24:24.412Z,16.99
2018-06-03T00:25:24.392Z,16.99
2018-06-03T00:26:24.372Z,16.94
2018-06-03T00:27:24.371Z,16.87
2018-06-03T00:28:24.345Z,16.94
2018-06-03T00:29:24.340Z,16.84
2018-06-03T00:30:24.320Z,16.88
2018-06-03T00:31:24.300Z,16.87
2018-06-03T00:32:24.276Z,16.80
2018-06-03T00:33:24.259Z,16.84
2018-06-03T00:34:24.252Z,16.83
2018-06-03T00:35:24.232Z,16.77
2018-06-03T00:36:24.218Z,16.77
2018-06-03T00:37:24.241Z,16.90
2018-06-03T00:38:24.176Z,16.79
2018-06-03T00:39:24.168Z,16.91
2018-06-03T00:40:24.191Z,16.87
2018-06-03T00:41:24.128Z,16.80
2018-06-03T00:42:24.118Z,16.92
2018-06-03T00:43:24.092Z,16.90
2018-06-03T00:44:24.087Z,16.84
2018-06-03T00:45:24.068Z,16.79
2018-06-03T00:46:24.049Z,16.77
2018-06-03T00:47:24.091Z,16.79
2018-06-03T00:48:24.033Z,16.77
2018-06-03T00:49:23.999Z,16.72
2018-06-03T00:50:23.983Z,16.69
2018-06-03T00:51:23.975Z,16.72
2018-06-03T00:52:23.945Z,16.64
2018-06-03T00:53:23.939Z,16.65
2018-06-03T00:54:23.913Z,16.61
2018-06-03T00:55:23.895Z,16.64
2018-06-03T00:56:23.881Z,16.54
2018-06-03T00:57:23.891Z,16.57
2018-06-03T00:58:23.851Z,16.59
2018-06-03T00:59:23.833Z,16.51
2018-06-03T01:00:23.815Z,16.51
2018-06-03T01:01:23.793Z,16.43
2018-06-03T01:02:23.776Z,16.52
2018-06-03T01:03:23.769Z,16.46
2018-06-03T01:04:23.743Z,16.47
2018-06-03T01:05:23.730Z,16.39
2018-06-03T01:06:23.728Z,16.39
2018-06-03T01:07:23.705Z,16.42
2018-06-03T01:08:23.678Z,16.34
2018-06-03T01:09:23.662Z,16.40
2018-06-03T01:10:23.651Z,16.33
2018-06-03T01:11:23.628Z,16.33
2018-06-03T01:12:23.650Z,16.37
2018-06-03T01:13:23.605Z,16.34
2018-06-03T01:14:23.598Z,16.43
2018-06-03T01:15:23.577Z,16.39
2018-06-03T01:16:23.559Z,16.29
2018-06-03T01:17:23.529Z,16.25
2018-06-03T01:18:23.527Z,16.32
2018-06-03T01:19:23.494Z,16.32
2018-06-03T01:20:23.480Z,16.32
2018-06-03T01:21:23.474Z,16.21
2018-06-03T01:22:23.445Z,16.21
2018-06-03T01:23:23.432Z,16.26
2018-06-03T01:24:23.412Z,16.36
2018-06-03T01:25:23.394Z,16.28
2018-06-03T01:26:23.379Z,16.24
2018-06-03T01:27:23.367Z,16.24
2018-06-03T01:28:23.343Z,16.25
2018-06-03T01:29:23.331Z,16.26
2018-06-03T01:30:23.306Z,16.25
2018-06-03T01:31:23.309Z,16.26
2018-06-03T01:32:23.276Z,16.16
2018-06-03T01:33:23.267Z,16.08
2018-06-03T01:34:23.247Z,16.06
2018-06-03T01:35:23.238Z,16.10
2018-06-03T01:36:23.213Z,16.09
2018-06-03T01:37:23.290Z,16.06
2018-06-03T01:38:23.191Z,16.10
2018-06-03T01:39:23.170Z,16.08
2018-06-03T01:40:23.138Z,16.09
2018-06-03T01:41:23.121Z,16.03
2018-06-03T01:42:23.131Z,16.05
2018-06-03T01:43:23.111Z,15.98
2018-06-03T01:44:23.072Z,16.09
2018-06-03T01:45:23.056Z,16.02
2018-06-03T01:46:23.040Z,15.99
2018-06-03T01:47:23.026Z,16.02
2018-06-03T01:48:23.006Z,16.00
2018-06-03T01:49:22.997Z,16.03
2018-06-03T01:50:22.975Z,15.98
2018-06-03T01:51:22.954Z,15.98
2018-06-03T01:52:22.939Z,16.03
2018-06-03T01:53:22.939Z,15.93
2018-06-03T01:54:22.905Z,16.03
2018-06-03T01:55:22.889Z,15.96
2018-06-03T01:56:22.875Z,15.95
2018-06-03T01:57:22.859Z,16.09
2018-06-03T01:58:22.841Z,15.90
2018-06-03T01:59:22.819Z,16.02
2018-06-03T02:00:22.806Z,15.96
2018-06-03T02:01:22.789Z,16.02
2018-06-03T02:02:22.772Z,15.90
2018-06-03T02:03:22.752Z,16.00
2018-06-03T02:04:22.737Z,15.99
2018-06-03T02:05:22.728Z,16.02
2018-06-03T02:06:22.707Z,15.93
2018-06-03T02:07:22.693Z,15.93
2018-06-03T02:08:22.672Z,15.91
2018-06-03T02:09:22.652Z,15.91
2018-06-03T02:10:22.633Z,15.93
2018-06-03T02:11:22.622Z,15.91
2018-06-03T02:12:22.601Z,15.93
2018-06-03T02:13:22.586Z,15.95
2018-06-03T02:14:22.567Z,15.96
2018-06-03T02:15:22.551Z,15.95
2018-06-03T02:16:22.536Z,15.93
2018-06-03T02:17:22.516Z,15.93
2018-06-03T02:18:22.501Z,15.95
2018-06-03T02:19:22.481Z,15.90
2018-06-03T02:20:22.466Z,15.90
2018-06-03T02:21:22.450Z,15.95
2018-06-03T02:22:22.432Z,15.99
2018-06-03T02:23:22.416Z,16.00
2018-06-03T02:24:22.391Z,16.03
2018-06-03T02:25:22.372Z,15.91
2018-06-03T02:26:22.365Z,15.93
2018-06-03T02:27:22.342Z,15.95
2018-06-03T02:28:22.338Z,16.05
2018-06-03T02:29:22.306Z,16.02
2018-06-03T02:30:22.291Z,16.00
2018-06-03T02:31:22.291Z,16.03
2018-06-03T02:32:22.260Z,16.05
2018-06-03T02:33:22.241Z,16.03
2018-06-03T02:34:22.226Z,16.00
2018-06-03T02:35:22.213Z,16.05
2018-06-03T02:36:22.188Z,16.03
2018-06-03T02:37:22.182Z,15.99
2018-06-03T02:38:22.164Z,16.02
2018-06-03T02:39:22.145Z,16.02
2018-06-03T02:40:22.121Z,16.00
2018-06-03T02:41:22.120Z,16.02
2018-06-03T02:42:22.137Z,16.05
2018-06-03T02:43:22.079Z,15.98
2018-06-03T02:44:22.055Z,16.08
2018-06-03T02:45:22.043Z,16.06
2018-06-03T02:46:22.026Z,15.98
2018-06-03T02:47:22.006Z,16.08
2018-06-03T02:48:21.982Z,16.03
2018-06-03T02:49:21.985Z,16.10
2018-06-03T02:50:21.951Z,16.09
2018-06-03T02:51:21.946Z,16.09
2018-06-03T02:52:21.921Z,16.05
2018-06-03T02:53:21.898Z,16.13
2018-06-03T02:54:21.887Z,16.05
2018-06-03T02:55:21.872Z,16.03
2018-06-03T02:56:21.854Z,16.16
2018-06-03T02:57:21.838Z,16.10
2018-06-03T02:58:21.830Z,16.18
2018-06-03T02:59:21.800Z,16.28
2018-06-03T03:00:21.785Z,16.18
2018-06-03T03:01:21.772Z,16.16
2018-06-03T03:02:21.753Z,16.18
2018-06-03T03:03:21.733Z,16.26
2018-06-03T03:04:21.721Z,16.24
2018-06-03T03:05:21.702Z,16.22
2018-06-03T03:06:21.684Z,16.25
2018-06-03T03:07:21.674Z,16.22
2018-06-03T03:08:21.653Z,16.29
2018-06-03T03:09:21.633Z,16.26
2018-06-03T03:10:21.616Z,16.29
2018-06-03T03:11:21.598Z,16.28
2018-06-03T03:12:21.584Z,16.28
2018-06-03T03:13:21.561Z,16.39
2018-06-03T03:14:21.551Z,16.39
2018-06-03T03:15:21.535Z,16.39
2018-06-03T03:16:21.517Z,16.39
2018-06-03T03:17:21.502Z,16.36
2018-06-03T03:18:21.482Z,16.40
2018-06-03T03:19:21.469Z,16.42
2018-06-03T03:20:21.452Z,16.46
2018-06-03T03:21:21.433Z,16.49
2018-06-03T03:22:21.418Z,16.46
2018-06-03T03:23:21.402Z,16.44
2018-06-03T03:24:21.380Z,16.58
2018-06-03T03:25:21.380Z,16.59
2018-06-03T03:26:21.347Z,16.55
2018-06-03T03:27:21.330Z,16.57
2018-06-03T03:28:21.321Z,16.55
2018-06-03T03:29:21.296Z,16.64
2018-06-03T03:30:21.281Z,16.72
2018-06-03T03:31:21.264Z,16.62
2018-06-03T03:32:21.251Z,16.59
2018-06-03T03:33:21.234Z,16.59
2018-06-03T03:34:21.215Z,16.67
2018-06-03T03:35:21.196Z,16.59
2018-06-03T03:36:21.179Z,16.67
2018-06-03T03:37:21.163Z,16.65
2018-06-03T03:38:21.149Z,16.70
2018-06-03T03:39:21.130Z,16.65
2018-06-03T03:40:21.113Z,16.69
2018-06-03T03:41:21.101Z,16.73
2018-06-03T03:42:21.081Z,16.76
2018-06-03T03:43:21.066Z,16.67
2018-06-03T03:44:21.047Z,16.74
2018-06-03T03:45:21.030Z,16.76
2018-06-03T03:46:21.017Z,16.79
2018-06-03T03:47:20.999Z,16.80
2018-06-03T03:48:20.980Z,16.80
2018-06-03T03:49:20.964Z,16.88
2018-06-03T03:50:20.955Z,16.84
2018-06-03T03:51:20.931Z,16.82
2018-06-03T03:52:20.914Z,16.88
2018-06-03T03:53:20.900Z,16.88
2018-06-03T03:54:20.896Z,16.87
2018-06-03T03:55:20.872Z,16.90
2018-06-03T03:56:20.853Z,16.95
2018-06-03T03:57:20.838Z,16.97
2018-06-03T03:58:20.822Z,16.94
2018-06-03T03:59:20.792Z,16.94
2018-06-03T04:00:20.784Z,16.97
2018-06-03T04:01:20.765Z,17.06
2018-06-03T04:02:20.749Z,16.98
2018-06-03T04:03:20.733Z,16.92
2018-06-03T04:04:20.718Z,17.04
2018-06-03T04:05:20.700Z,17.04
2018-06-03T04:06:20.693Z,17.07
2018-06-03T04:07:20.666Z,17.01
2018-06-03T04:08:20.661Z,17.12
2018-06-03T04:09:20.634Z,17.02
2018-06-03T04:10:20.620Z,17.10
2018-06-03T04:11:20.602Z,17.16
2018-06-03T04:12:20.587Z,17.12
2018-06-03T04:13:20.570Z,17.10
2018-06-03T04:14:20.552Z,17.09
2018-06-03T04:15:20.537Z,17.19
2018-06-03T04:16:20.515Z,17.06
2018-06-03T04:17:20.510Z,17.20
2018-06-03T04:18:20.491Z,17.20
2018-06-03T04:19:20.476Z,17.24
2018-06-03T04:20:20.457Z,17.14
2018-06-03T04:21:20.439Z,17.12
2018-06-03T04:22:20.422Z,17.16
2018-06-03T04:23:20.405Z,17.13
2018-06-03T04:24:20.389Z,17.13
2018-06-03T04:25:20.374Z,17.19
2018-06-03T04:26:20.356Z,17.28
2018-06-03T04:27:20.341Z,17.14
2018-06-03T04:28:20.326Z,17.20
2018-06-03T04:29:20.309Z,17.20
2018-06-03T04:30:20.293Z,17.25
2018-06-03T04:31:20.274Z,17.19
2018-06-03T04:32:20.260Z,17.27
2018-06-03T04:33:20.247Z,17.30
2018-06-03T04:34:20.229Z,17.22
2018-06-03T04:35:20.209Z,17.32
2018-06-03T04:36:20.196Z,17.37
2018-06-03T04:37:20.184Z,17.34
2018-06-03T04:38:20.162Z,17.34
2018-06-03T04:39:20.149Z,17.30
2018-06-03T04:40:20.126Z,17.35
2018-06-03T04:41:20.156Z,17.41
2018-06-03T04:42:20.098Z,17.35
2018-06-03T04:43:20.089Z,17.35
2018-06-03T04:44:20.068Z,17.39
2018-06-03T04:45:20.052Z,17.38
2018-06-03T04:46:20.036Z,17.43
2018-06-03T04:47:20.018Z,17.41
2018-06-03T04:48:20.002Z,17.38
2018-06-03T04:49:19.988Z,17.43
2018-06-03T04:50:19.975Z,17.41
2018-06-03T04:51:19.957Z,17.43
2018-06-03T04:52:19.938Z,17.43
2018-06-03T04:53:19.922Z,17.41
2018-06-03T04:54:19.906Z,17.49
2018-06-03T04:55:19.891Z,17.41
2018-06-03T04:56:19.874Z,17.38
2018-06-03T04:57:19.859Z,17.53
2018-06-03T04:58:19.843Z,17.52
2018-06-03T04:59:19.828Z,17.49
2018-06-03T05:00:19.812Z,17.57
2018-06-03T05:01:19.793Z,17.57
2018-06-03T05:02:19.778Z,17.50
2018-06-03T05:03:19.765Z,17.62
2018-06-03T05:04:19.748Z,17.57
2018-06-03T05:05:19.731Z,17.66
2018-06-03T05:06:19.714Z,17.72
2018-06-03T05:07:19.698Z,17.73
2018-06-03T05:08:19.684Z,17.63
2018-06-03T05:09:19.668Z,17.66
2018-06-03T05:10:19.652Z,17.71
2018-06-03T05:11:19.637Z,17.66
2018-06-03T05:12:19.620Z,17.81
2018-06-03T05:13:19.604Z,17.78
2018-06-03T05:14:19.590Z,17.87
2018-06-03T05:15:19.574Z,17.88
2018-06-03T05:16:19.557Z,17.90
2018-06-03T05:17:19.539Z,17.88
2018-06-03T05:18:19.529Z,17.91
2018-06-03T05:19:19.510Z,17.90
2018-06-03T05:20:19.496Z,17.97
2018-06-03T05:21:19.479Z,17.90
2018-06-03T05:22:19.462Z,18.05
2018-06-03T05:23:19.446Z,18.02
2018-06-03T05:24:19.430Z,17.99
2018-06-03T05:25:19.417Z,17.99
2018-06-03T05:26:19.400Z,18.02
2018-06-03T05:27:19.386Z,18.09
2018-06-03T05:28:19.370Z,18.09
2018-06-03T05:29:19.354Z,18.09
2018-06-03T05:30:19.339Z,18.13
2018-06-03T05:31:19.323Z,18.17
2018-06-03T05:32:19.307Z,18.21
2018-06-03T05:33:19.294Z,18.21
2018-06-03T05:34:19.273Z,18.27
2018-06-03T05:35:19.253Z,18.20
2018-06-03T05:36:19.242Z,18.21
2018-06-03T05:37:19.229Z,18.20
2018-06-03T05:38:19.212Z,18.28
2018-06-03T05:39:19.208Z,18.38
2018-06-03T05:40:19.183Z,18.42
2018-06-03T05:41:19.169Z,18.42
2018-06-03T05:42:19.153Z,18.51
2018-06-03T05:43:19.141Z,18.43
2018-06-03T05:44:19.122Z,18.51
2018-06-03T05:45:19.108Z,18.51
2018-06-03T05:46:19.093Z,18.51
2018-06-03T05:47:19.079Z,18.56
2018-06-03T05:48:19.063Z,18.58
2018-06-03T05:49:19.048Z,18.60
2018-06-03T05:50:19.031Z,18.74
2018-06-03T05:51:19.015Z,18.74
2018-06-03T05:52:19.004Z,18.76
2018-06-03T05:53:18.985Z,18.79
2018-06-03T05:54:18.976Z,18.83
2018-06-03T05:55:18.954Z,18.85
2018-06-03T05:56:18.945Z,18.85
2018-06-03T05:57:18.937Z,18.89
2018-06-03T05:58:18.910Z,18.97
2018-06-03T05:59:18.900Z,18.89
2018-06-03T06:00:18.884Z,18.96
2018-06-03T06:01:18.875Z,18.97
2018-06-03T06:02:18.850Z,19.07
2018-06-03T06:03:18.841Z,19.04
2018-06-03T06:04:18.825Z,19.15
2018-06-03T06:05:18.812Z,19.09
2018-06-03T06:06:18.793Z,19.07
2018-06-03T06:07:18.777Z,19.00
2018-06-03T06:08:18.775Z,19.12
2018-06-03T06:09:18.755Z,19.05
2018-06-03T06:10:18.736Z,19.09
2018-06-03T06:11:18.729Z,19.07
2018-06-03T06:12:18.704Z,19.17
2018-06-03T06:13:18.691Z,19.15
2018-06-03T06:14:18.684Z,19.27
2018-06-03T06:15:18.670Z,19.34
2018-06-03T06:16:18.653Z,19.27
2018-06-03T06:17:18.642Z,19.30
2018-06-03T06:18:18.625Z,19.17
2018-06-03T06:19:18.613Z,19.20
2018-06-03T06:20:18.597Z,19.24
2018-06-03T06:21:18.588Z,19.22
2018-06-03T06:22:18.572Z,19.20
2018-06-03T06:23:18.555Z,19.32
2018-06-03T06:24:18.543Z,19.30
2018-06-03T06:25:18.533Z,19.27
2018-06-03T06:26:18.514Z,19.39
2018-06-03T06:27:18.504Z,19.35
2018-06-03T06:28:18.485Z,19.45
2018-06-03T06:29:18.470Z,19.47
2018-06-03T06:30:18.455Z,19.50
2018-06-03T06:31:18.441Z,19.47
2018-06-03T06:32:18.427Z,19.49
2018-06-03T06:33:18.415Z,19.47
2018-06-03T06:34:18.404Z,19.42
2018-06-03T06:35:18.391Z,19.47
2018-06-03T06:36:18.376Z,19.52
2018-06-03T06:37:18.366Z,19.50
2018-06-03T06:38:18.354Z,19.56
2018-06-03T06:39:18.334Z,19.64
2018-06-03T06:40:18.322Z,19.60
2018-06-03T06:41:18.310Z,19.64
2018-06-03T06:42:18.294Z,19.71
2018-06-03T06:43:18.282Z,19.70
2018-06-03T06:44:18.269Z,19.75
2018-06-03T06:45:18.257Z,19.84
2018-06-03T06:46:18.242Z,19.68
2018-06-03T06:47:18.230Z,19.68
2018-06-03T06:48:18.218Z,19.75
2018-06-03T06:49:18.206Z,19.82
2018-06-03T06:50:18.191Z,19.75
2018-06-03T06:51:18.180Z,19.72
2018-06-03T06:52:18.166Z,19.72
2018-06-03T06:53:18.154Z,19.78
2018-06-03T06:54:18.141Z,19.68
2018-06-03T06:55:18.129Z,19.78
2018-06-03T06:56:18.117Z,19.86
2018-06-03T06:57:18.125Z,19.94
2018-06-03T06:58:18.091Z,19.92
2018-06-03T06:59:18.078Z,20.07
2018-06-03T07:00:18.108Z,19.97
2018-06-03T07:01:18.054Z,20.12
2018-06-03T07:02:18.040Z,20.19
2018-06-03T07:03:18.031Z,20.18
2018-06-03T07:04:18.014Z,20.33
2018-06-03T07:05:17.999Z,20.46
2018-06-03T07:06:17.994Z,20.41
2018-06-03T07:07:17.978Z,20.33
2018-06-03T07:08:17.967Z,20.34
2018-06-03T07:09:17.955Z,20.22
2018-06-03T07:10:17.942Z,20.17
2018-06-03T07:11:17.930Z,20.17
2018-06-03T07:12:17.917Z,20.15
2018-06-03T07:13:17.905Z,20.09
2018-06-03T07:14:17.889Z,20.15
2018-06-03T07:15:17.880Z,20.19
2018-06-03T07:16:17.867Z,20.27
2018-06-03T07:17:17.857Z,20.37
2018-06-03T07:18:17.843Z,20.41
2018-06-03T07:19:17.830Z,20.37
2018-06-03T07:20:17.818Z,20.39
2018-06-03T07:21:17.809Z,20.33
2018-06-03T07:22:17.795Z,20.33
2018-06-03T07:23:17.835Z,20.36
2018-06-03T07:24:17.770Z,20.19
2018-06-03T07:25:17.759Z,20.27
2018-06-03T07:26:17.748Z,20.32
2018-06-03T07:27:17.734Z,20.36
2018-06-03T07:28:17.721Z,20.39
2018-06-03T07:29:17.710Z,20.36
2018-06-03T07:30:17.697Z,20.42
2018-06-03T07:31:17.685Z,20.42
2018-06-03T07:32:17.673Z,20.55
2018-06-03T07:33:17.662Z,20.55
2018-06-03T07:34:17.648Z,20.50
2018-06-03T07:35:17.638Z,20.49
2018-06-03T07:36:17.629Z,20.67
2018-06-03T07:37:17.617Z,20.65
2018-06-03T07:38:17.664Z,20.75
2018-06-03T07:39:17.592Z,20.79
2018-06-03T07:40:17.577Z,20.85
2018-06-03T07:41:17.567Z,20.64
2018-06-03T07:42:17.552Z,20.68
2018-06-03T07:43:17.543Z,20.58
2018-06-03T07:44:17.529Z,20.65
2018-06-03T07:45:17.517Z,20.52
2018-06-03T07:46:17.504Z,20.37
2018-06-03T07:47:17.495Z,20.53
2018-06-03T07:48:17.483Z,20.56
2018-06-03T07:49:17.472Z,20.74
2018-06-03T07:50:17.483Z,20.73
2018-06-03T07:51:17.447Z,20.80
2018-06-03T07:52:17.437Z,20.80
2018-06-03T07:53:17.423Z,20.88
2018-06-03T07:54:17.412Z,20.85
2018-06-03T07:55:17.398Z,20.85
2018-06-03T07:56:17.385Z,20.79
2018-06-03T07:57:17.376Z,20.89
2018-06-03T07:58:17.359Z,20.82
2018-06-03T07:59:17.347Z,20.88
2018-06-03T08:00:17.336Z,20.88
2018-06-03T08:01:17.323Z,20.90
2018-06-03T08:02:17.309Z,20.86
2018-06-03T08:03:17.299Z,20.92
2018-06-03T08:04:17.287Z,20.89
2018-06-03T08:05:17.277Z,20.89
2018-06-03T08:06:17.262Z,20.82
2018-06-03T08:07:17.252Z,20.92
2018-06-03T08:08:17.243Z,20.95
2018-06-03T08:09:17.228Z,20.85
2018-06-03T08:10:17.215Z,20.89
2018-06-03T08:11:17.204Z,20.88
2018-06-03T08:12:17.196Z,20.80
2018-06-03T08:13:17.182Z,20.75
2018-06-03T08:14:17.168Z,20.68
2018-06-03T08:15:17.161Z,20.80
2018-06-03T08:16:17.145Z,20.82
2018-06-03T08:17:17.133Z,20.97
2018-06-03T08:18:17.121Z,21.07
2018-06-03T08:19:17.110Z,21.04
2018-06-03T08:20:17.099Z,21.16
2018-06-03T08:21:17.086Z,21.13
2018-06-03T08:22:17.074Z,21.13
2018-06-03T08:23:17.064Z,21.20
2018-06-03T08:24:17.054Z,21.28
2018-06-03T08:25:17.045Z,21.43
2018-06-03T08:26:17.030Z,21.41
2018-06-03T08:27:17.018Z,21.45
2018-06-03T08:28:17.008Z,21.34
2018-06-03T08:29:16.996Z,21.35
2018-06-03T08:30:16.984Z,21.35
2018-06-03T08:31:16.971Z,21.43
2018-06-03T08:32:16.961Z,21.41
2018-06-03T08:33:16.950Z,21.44
2018-06-03T08:34:16.937Z,21.44
2018-06-03T08:35:16.926Z,21.51
2018-06-03T08:36:16.916Z,21.59
2018-06-03T08:37:16.903Z,21.59
2018-06-03T08:38:16.892Z,21.50
2018-06-03T08:39:16.901Z,21.37
2018-06-03T08:40:16.870Z,21.38
2018-06-03T08:41:16.859Z,21.30
2018-06-03T08:42:16.846Z,21.25
2018-06-03T08:43:16.836Z,21.22
2018-06-03T08:44:16.827Z,21.20
2018-06-03T08:45:16.816Z,21.28
2018-06-03T08:46:16.804Z,21.28
2018-06-03T08:47:16.792Z,21.25
2018-06-03T08:48:16.779Z,21.32
2018-06-03T08:49:16.768Z,21.30
2018-06-03T08:50:16.764Z,21.30
2018-06-03T08:51:16.746Z,21.30
2018-06-03T08:52:16.734Z,21.37
2018-06-03T08:53:16.728Z,21.34
2018-06-03T08:54:16.713Z,21.37
2018-06-03T08:55:16.700Z,21.32
2018-06-03T08:56:16.689Z,21.26
2018-06-03T08:57:16.678Z,21.23
2018-06-03T08:58:16.668Z,21.18
2018-06-03T08:59:16.655Z,21.03
2018-06-03T09:00:16.645Z,20.89
2018-06-03T09:01:16.633Z,20.86
2018-06-03T09:02:16.621Z,20.79
2018-06-03T09:03:16.610Z,20.73
2018-06-03T09:04:16.598Z,20.67
2018-06-03T09:05:16.588Z,20.68
2018-06-03T09:06:16.577Z,20.60
2018-06-03T09:07:16.563Z,20.52
2018-06-03T09:08:16.552Z,20.50
2018-06-03T09:09:16.540Z,20.55
2018-06-03T09:10:16.528Z,20.52
2018-06-03T09:11:16.509Z,20.53
2018-06-03T09:12:16.504Z,20.49
2018-06-03T09:13:16.491Z,20.52
2018-06-03T09:14:16.479Z,20.44
2018-06-03T09:15:16.467Z,20.46
2018-06-03T09:16:16.455Z,20.37
2018-06-03T09:17:16.448Z,20.34
2018-06-03T09:18:16.431Z,20.27
2018-06-03T09:19:16.418Z,20.23
2018-06-03T09:20:16.404Z,20.19
2018-06-03T09:21:16.393Z,20.18
2018-06-03T09:22:16.382Z,20.25
2018-06-03T09:23:16.368Z,20.27
2018-06-03T09:24:16.359Z,20.29
2018-06-03T09:25:16.345Z,20.17
2018-06-03T09:26:16.331Z,20.17
2018-06-03T09:27:16.319Z,20.25
2018-06-03T09:28:16.305Z,20.25
2018-06-03T09:29:16.296Z,20.27
2018-06-03T09:30:16.279Z,20.26
2018-06-03T09:31:16.268Z,20.33
2018-06-03T09:32:16.254Z,20.29
2018-06-03T09:33:16.242Z,20.32
2018-06-03T09:34:16.230Z,20.27
2018-06-03T09:35:16.222Z,20.37
2018-06-03T09:36:16.203Z,20.34
2018-06-03T09:37:16.190Z,20.37
2018-06-03T09:38:16.177Z,20.37
2018-06-03T09:39:16.168Z,20.56
2018-06-03T09:40:16.152Z,20.64
2018-06-03T09:41:16.140Z,20.61
2018-06-03T09:42:16.125Z,20.67
2018-06-03T09:43:16.114Z,20.63
2018-06-03T09:44:16.137Z,20.71
2018-06-03T09:45:16.089Z,20.82
2018-06-03T09:46:16.074Z,20.82
2018-06-03T09:47:16.064Z,20.88
2018-06-03T09:48:16.051Z,20.82
2018-06-03T09:49:16.037Z,20.88
2018-06-03T09:50:16.024Z,20.92
2018-06-03T09:51:16.012Z,20.97
2018-06-03T09:52:15.999Z,20.93
2018-06-03T09:53:16.017Z,21.03
2018-06-03T09:54:15.975Z,21.03
2018-06-03T09:55:15.964Z,21.18
2018-06-03T09:56:15.950Z,21.04
2018-06-03T09:57:15.937Z,21.16
2018-06-03T09:58:15.925Z,21.20
2018-06-03T09:59:15.913Z,21.20
2018-06-03T10:00:15.958Z,21.34
2018-06-03T10:01:15.888Z,21.30
2018-06-03T10:02:15.875Z,21.43
2018-06-03T10:03:15.863Z,21.44
2018-06-03T10:04:15.850Z,21.50
2018-06-03T10:05:15.836Z,21.50
2018-06-03T10:06:15.825Z,21.56
2018-06-03T10:07:15.815Z,21.53
2018-06-03T10:08:15.808Z,21.59
2018-06-03T10:09:15.795Z,21.65
2018-06-03T10:10:15.802Z,21.74
2018-06-03T10:11:15.768Z,21.78
2018-06-03T10:12:15.755Z,21.81
2018-06-03T10:13:15.744Z,21.78
2018-06-03T10:14:15.733Z,21.91
2018-06-03T10:15:15.719Z,21.88
2018-06-03T10:16:15.770Z,22.06
2018-06-03T10:17:15.696Z,22.13
2018-06-03T10:18:15.685Z,22.19
2018-06-03T10:19:15.672Z,22.19
2018-06-03T10:20:15.662Z,22.23
2018-06-03T10:21:15.652Z,22.28
2018-06-03T10:22:15.639Z,22.34
2018-06-03T10:23:15.628Z,22.33
2018-06-03T10:24:15.619Z,22.36
2018-06-03T10:25:15.606Z,22.34
2018-06-03T10:26:15.594Z,22.41
2018-06-03T10:27:15.583Z,22.53
2018-06-03T10:28:15.573Z,22.58
2018-06-03T10:29:15.563Z,22.64
2018-06-03T10:30:15.551Z,22.70
2018-06-03T10:31:15.539Z,22.71
2018-06-03T10:32:15.532Z,22.61
2018-06-03T10:33:15.517Z,22.64
2018-06-03T10:34:15.510Z,22.61
2018-06-03T10:35:15.499Z,22.67
2018-06-03T10:36:15.487Z,22.73
2018-06-03T10:37:15.476Z,22.73
2018-06-03T10:38:15.464Z,22.70
2018-06-03T10:39:15.454Z,22.74
2018-06-03T10:40:15.443Z,22.89
2018-06-03T10:41:15.433Z,22.91
2018-06-03T10:42:15.423Z,22.95
2018-06-03T10:43:15.412Z,22.93
2018-06-03T10:44:15.403Z,23.06
2018-06-03T10:45:15.392Z,23.04
2018-06-03T10:46:15.382Z,23.11
2018-06-03T10:47:15.372Z,23.06
2018-06-03T10:48:15.415Z,23.17
2018-06-03T10:49:15.352Z,23.21
2018-06-03T10:50:15.341Z,23.41
2018-06-03T10:51:15.331Z,23.23
2018-06-03T10:52:15.321Z,23.34
2018-06-03T10:53:15.312Z,23.42
2018-06-03T10:54:15.326Z,23.59
2018-06-03T10:55:15.296Z,23.67
2018-06-03T10:56:15.282Z,23.76
2018-06-03T10:57:15.275Z,23.63
2018-06-03T10:58:15.264Z,23.55
2018-06-03T10:59:15.258Z,23.52
2018-06-03T11:00:15.245Z,23.48
2018-06-03T11:01:15.236Z,23.44
2018-06-03T11:02:15.228Z,23.59
2018-06-03T11:03:15.219Z,23.55
2018-06-03T11:04:15.211Z,23.70
2018-06-03T11:05:15.202Z,23.67
2018-06-03T11:06:15.189Z,23.69
2018-06-03T11:07:15.182Z,23.55
2018-06-03T11:08:15.172Z,23.67
2018-06-03T11:09:15.164Z,23.81
2018-06-03T11:10:15.153Z,23.89
2018-06-03T11:11:15.146Z,23.94
2018-06-03T11:12:15.136Z,24.10
2018-06-03T11:13:15.127Z,24.08
2018-06-03T11:14:15.120Z,24.26
2018-06-03T11:15:15.111Z,24.29
2018-06-03T11:16:15.103Z,24.34
2018-06-03T11:17:15.093Z,24.38
2018-06-03T11:18:15.085Z,24.36
2018-06-03T11:19:15.075Z,24.07
2018-06-03T11:20:15.070Z,24.07
2018-06-03T11:21:15.057Z,23.88
2018-06-03T11:22:15.050Z,23.81
2018-06-03T11:23:15.039Z,23.81
2018-06-03T11:24:15.031Z,23.84
2018-06-03T11:25:15.024Z,23.92
2018-06-03T11:26:15.014Z,24.01
2018-06-03T11:27:15.006Z,23.98
2018-06-03T11:28:14.996Z,23.97
2018-06-03T11:29:14.988Z,23.92
2018-06-03T11:30:14.979Z,23.78
2018-06-03T11:31:14.969Z,23.66
2018-06-03T11:32:14.961Z,23.64
2018-06-03T11:33:14.953Z,23.76
2018-06-03T11:34:14.943Z,23.84
2018-06-03T11:35:14.953Z,24.04
2018-06-03T11:36:14.925Z,24.10
2018-06-03T11:37:14.917Z,24.19
2018-06-03T11:38:15.002Z,24.29
2018-06-03T11:39:14.899Z,24.43
2018-06-03T11:40:14.890Z,24.63
2018-06-03T11:41:14.880Z,24.85
2018-06-03T11:42:14.872Z,25.11
2018-06-03T11:43:14.867Z,25.19
2018-06-03T11:44:14.856Z,25.14
2018-06-03T11:45:15.057Z,25.11
2018-06-03T11:46:14.863Z,25.33
2018-06-03T11:47:14.828Z,25.36
2018-06-03T11:48:14.818Z,25.23
2018-06-03T11:49:14.983Z,25.26
2018-06-03T11:50:14.801Z,25.45
2018-06-03T11:51:14.795Z,25.40
2018-06-03T11:52:14.787Z,25.53
2018-06-03T11:53:14.778Z,25.48
2018-06-03T11:54:16.551Z,25.43
2018-06-03T11:55:15.155Z,25.51
2018-06-03T11:56:14.753Z,25.49
2018-06-03T11:57:14.745Z,25.36
2018-06-03T11:58:14.737Z,25.33
2018-06-03T11:59:14.813Z,25.45
2018-06-03T12:00:14.720Z,25.52
2018-06-03T12:01:14.713Z,25.45
2018-06-03T12:02:14.704Z,25.51
2018-06-03T12:03:14.695Z,25.53
2018-06-03T12:04:14.687Z,25.55
2018-06-03T12:05:14.682Z,25.66
2018-06-03T12:06:14.679Z,25.67
2018-06-03T12:07:14.690Z,25.75
2018-06-03T12:08:14.713Z,25.89
2018-06-03T12:09:14.655Z,26.00
2018-06-03T12:10:14.641Z,26.03
2018-06-03T12:11:14.635Z,26.03
2018-06-03T12:12:14.628Z,26.00
2018-06-03T12:13:14.618Z,26.05
2018-06-03T12:14:14.614Z,25.90
2018-06-03T12:15:14.603Z,25.82
2018-06-03T12:16:14.598Z,25.85
2018-06-03T12:17:14.589Z,25.89
2018-06-03T12:18:14.583Z,25.88
2018-06-03T12:19:14.572Z,25.67
2018-06-03T12:20:14.564Z,25.63
2018-06-03T12:21:14.566Z,25.51
2018-06-03T12:22:14.549Z,25.43
2018-06-03T12:23:14.542Z,25.46
2018-06-03T12:24:14.534Z,25.49
2018-06-03T12:25:14.527Z,25.53
2018-06-03T12:26:14.520Z,25.64
2018-06-03T12:27:14.513Z,25.67
2018-06-03T12:28:14.505Z,25.81
2018-06-03T12:29:14.498Z,25.98
2018-06-03T12:30:14.493Z,26.07
2018-06-03T12:31:14.616Z,25.95
2018-06-03T12:32:14.577Z,25.86
2018-06-03T12:33:14.468Z,25.85
2018-06-03T12:34:14.522Z,25.88
2018-06-03T12:35:14.455Z,25.90
2018-06-03T12:36:14.449Z,25.96
2018-06-03T12:37:14.439Z,25.89
2018-06-03T12:38:14.432Z,25.95
2018-06-03T12:39:14.430Z,26.19
2018-06-03T12:40:14.418Z,26.53
2018-06-03T12:41:14.411Z,26.82
2018-06-03T12:42:14.403Z,27.12
2018-06-03T12:43:14.403Z,27.31
2018-06-03T12:44:14.390Z,27.66
2018-06-03T12:45:14.384Z,27.94
2018-06-03T12:46:14.378Z,28.31
2018-06-03T12:47:14.372Z,28.57
2018-06-03T12:48:14.365Z,28.64
2018-06-03T12:49:14.361Z,28.71
2018-06-03T12:50:14.354Z,28.56
2018-06-03T12:51:14.350Z,28.47
2018-06-03T12:52:14.344Z,28.59